createdAt,value
2023-03-26T00:02:30.180Z,83000.22
2023-03-26T00:05:32.916Z,83001.09
2023-03-26T00:08:38.419Z,83003.47
2023-03-26T00:11:41.198Z,82995.47
2023-03-26T00:14:43.738Z,83003.41
2023-03-26T00:17:46.737Z,83001.03
2023-03-26T00:20:49.151Z,83006.56
2023-03-26T00:23:53.592Z,83000.28
2023-03-26T00:26:56.102Z,83001.84
2023-03-26T00:30:00.132Z,83001.00
2023-03-26T00:33:03.217Z,83003.41
2023-03-26T00:36:10.114Z,82997.97
2023-03-26T00:39:14.176Z,83000.22
2023-03-26T00:42:16.885Z,82995.59
2023-03-26T00:45:21.429Z,82997.06
2023-03-26T00:48:34.487Z,82997.09
2023-03-26T00:51:41.945Z,82993.91
2023-03-26T00:54:54.610Z,82993.91
2023-03-26T00:57:57.373Z,82996.34
2023-03-26T01:01:03.528Z,82991.59
2023-03-26T01:04:27.936Z,82997.16
2023-03-26T01:07:31.452Z,82996.34
2023-03-26T01:10:39.052Z,82984.53
2023-03-26T01:14:09.666Z,82989.22
2023-03-26T01:17:12.777Z,82985.28
2023-03-26T01:20:30.502Z,82997.19
2023-03-26T01:23:45.661Z,82985.28
2023-03-26T01:27:01.547Z,82986.84
2023-03-26T01:30:17.247Z,82986.84
2023-03-26T01:33:30.302Z,82986.16
2023-03-26T01:36:38.016Z,82992.38
2023-03-26T01:40:28.356Z,82991.69
2023-03-26T01:43:47.236Z,82992.44
2023-03-26T01:46:52.433Z,82995.53
2023-03-26T01:49:54.923Z,83001.84
2023-03-26T01:52:57.781Z,82990.13
2023-03-26T01:56:17.845Z,82994.78
2023-03-26T01:59:47.492Z,82993.97
2023-03-26T02:03:05.748Z,82997.13
2023-03-26T02:06:45.895Z,83002.66
2023-03-26T02:09:53.475Z,83011.37
2023-03-26T02:12:58.081Z,83011.37
2023-03-26T02:16:02.967Z,83014.53
2023-03-26T02:19:05.490Z,83020.06
2023-03-26T02:22:15.862Z,83022.44
2023-03-26T02:25:21.235Z,83031.94
2023-03-26T02:28:24.362Z,83035.13
2023-03-26T02:31:27.064Z,83038.28
2023-03-26T02:34:29.818Z,83036.81
2023-03-26T02:37:33.911Z,83043.03
2023-03-26T02:40:38.811Z,83038.38
2023-03-26T02:43:41.560Z,83038.41
2023-03-26T02:46:45.953Z,83039.91
2023-03-26T02:49:49.394Z,83036.78
2023-03-26T02:52:53.496Z,83032.00
2023-03-26T02:56:01.067Z,83030.47
2023-03-26T02:59:06.626Z,83025.72
2023-03-26T03:02:09.187Z,83032.00
2023-03-26T03:05:12.011Z,83032.13
2023-03-26T03:08:14.481Z,83036.75
2023-03-26T03:11:24.632Z,83035.16
2023-03-26T03:14:31.699Z,83036.81
2023-03-26T03:17:34.561Z,83036.75
2023-03-26T03:20:37.774Z,83041.59
2023-03-26T03:23:40.532Z,83043.88
2023-03-26T03:26:45.675Z,83047.09
2023-03-26T03:29:48.851Z,83058.94
2023-03-26T03:32:54.700Z,83057.34
2023-03-26T03:35:59.473Z,83052.59
2023-03-26T03:39:02.883Z,83052.59
2023-03-26T03:42:06.940Z,83054.16
2023-03-26T03:45:10.385Z,83054.16
2023-03-26T03:48:14.268Z,83069.22
2023-03-26T03:51:18.571Z,83076.31
2023-03-26T03:54:21.768Z,83076.34
2023-03-26T03:57:27.396Z,83075.53
2023-03-26T04:00:31.013Z,83077.09
2023-03-26T04:03:38.832Z,83069.97
2023-03-26T04:06:42.737Z,83071.59
2023-03-26T04:09:46.274Z,83071.56
2023-03-26T04:12:49.490Z,83074.72
2023-03-26T04:15:53.075Z,83077.91
2023-03-26T04:18:57.474Z,83082.66
2023-03-26T04:22:03.167Z,83088.97
2023-03-26T04:25:07.700Z,83093.72
2023-03-26T04:28:15.900Z,83088.97
2023-03-26T04:31:24.628Z,83089.00
2023-03-26T04:34:31.033Z,83089.03
2023-03-26T04:37:42.130Z,83089.00
2023-03-26T04:40:47.467Z,83087.41
2023-03-26T04:43:50.902Z,83092.19
2023-03-26T04:46:55.267Z,83100.97
2023-03-26T04:49:58.208Z,83100.16
2023-03-26T04:53:01.020Z,83100.84
2023-03-26T04:56:17.126Z,83100.09
2023-03-26T04:59:34.868Z,83099.28
2023-03-26T05:02:40.013Z,83096.94
2023-03-26T05:05:43.306Z,83088.97
2023-03-26T05:08:46.341Z,83072.34
2023-03-26T05:11:53.460Z,83054.97
2023-03-26T05:14:56.553Z,83046.22
2023-03-26T05:18:00.688Z,83030.34
2023-03-26T05:21:03.780Z,83020.84
2023-03-26T05:24:07.190Z,83003.50
2023-03-26T05:27:15.406Z,82992.28
2023-03-26T05:30:21.132Z,82992.31
2023-03-26T05:33:23.879Z,82979.59
2023-03-26T05:36:30.718Z,82963.78
2023-03-26T05:39:35.651Z,82965.34
2023-03-26T05:42:41.777Z,82955.84
2023-03-26T05:45:47.346Z,82951.09
2023-03-26T05:48:52.130Z,82953.53
2023-03-26T05:51:55.517Z,82943.94
2023-03-26T05:54:59.679Z,82944.75
2023-03-26T05:58:13.942Z,82929.72
2023-03-26T06:01:25.681Z,82924.09
2023-03-26T06:04:29.893Z,82909.81
2023-03-26T06:07:33.991Z,82900.34
2023-03-26T06:10:39.630Z,82901.91
2023-03-26T06:13:43.162Z,82900.34
2023-03-26T06:16:46.204Z,82901.91
2023-03-26T06:19:49.052Z,82894.12
2023-03-26T06:22:53.132Z,82897.28
2023-03-26T06:25:56.204Z,82895.59
2023-03-26T06:28:59.926Z,82890.13
2023-03-26T06:32:16.343Z,82876.56
2023-03-26T06:35:22.021Z,82862.28
2023-03-26T06:38:25.468Z,82855.22
2023-03-26T06:41:29.830Z,82844.87
2023-03-26T06:44:33.050Z,82811.44
2023-03-26T06:47:37.682Z,82787.62
2023-03-26T06:50:42.234Z,82752.72
2023-03-26T06:53:45.330Z,82693.84
2023-03-26T06:56:51.677Z,82636.56
2023-03-26T06:59:54.997Z,82652.63
2023-03-26T07:03:06.263Z,82637.63
2023-03-26T07:06:20.416Z,82599.25
2023-03-26T07:09:26.363Z,82494.97
2023-03-26T07:12:31.001Z,82366.75
2023-03-26T07:15:34.045Z,82311.84
2023-03-26T07:18:38.186Z,82275.22
2023-03-26T07:21:42.186Z,82190.56
2023-03-26T07:24:46.228Z,82158.63
2023-03-26T07:28:01.150Z,82188.97
2023-03-26T07:31:39.739Z,82228.84
2023-03-26T07:34:51.959Z,82224.03
2023-03-26T07:38:01.197Z,82239.94
2023-03-26T07:41:35.027Z,82218.34
2023-03-26T07:44:48.417Z,82149.66
2023-03-26T07:47:53.687Z,82126.53
2023-03-26T07:50:58.628Z,82171.31
2023-03-26T07:54:04.332Z,82102.59
2023-03-26T07:57:28.540Z,82038.69
2023-03-26T08:00:41.496Z,82173.94
2023-03-26T08:03:51.083Z,82184.00
2023-03-26T08:07:05.245Z,82227.84
2023-03-26T08:10:23.660Z,82343.56
2023-03-26T08:13:57.582Z,82377.06
2023-03-26T08:17:36.038Z,82392.91
2023-03-26T08:20:49.092Z,82453.50
2023-03-26T08:24:01.603Z,82461.69
2023-03-26T08:27:16.268Z,82432.91
2023-03-26T08:30:26.983Z,82440.84
2023-03-26T08:33:30.775Z,82428.12
2023-03-26T08:36:33.682Z,82444.09
2023-03-26T08:39:38.920Z,82437.69
2023-03-26T08:43:21.807Z,82447.28
2023-03-26T08:46:46.494Z,82443.22
2023-03-26T08:50:16.362Z,82450.41
2023-03-26T08:53:56.266Z,82478.50
2023-03-26T08:57:20.497Z,82451.25
2023-03-26T09:00:38.326Z,82487.97
2023-03-26T09:03:41.642Z,82473.53
2023-03-26T09:07:12.219Z,82437.72
2023-03-26T09:10:35.904Z,82358.06
2023-03-26T09:14:21.483Z,82321.47
2023-03-26T09:18:12.319Z,82326.16
2023-03-26T09:21:47.929Z,82323.22
2023-03-26T09:24:52.372Z,82273.63
2023-03-26T09:28:12.869Z,82145.94
2023-03-26T09:31:31.965Z,82054.97
2023-03-26T09:34:45.251Z,82081.59
2023-03-26T09:38:11.365Z,82157.41
2023-03-26T09:41:27.252Z,82168.44
2023-03-26T09:44:54.973Z,82142.91
2023-03-26T09:48:14.051Z,82139.75
2023-03-26T09:51:39.819Z,82130.94
2023-03-26T09:55:11.776Z,82115.25
2023-03-26T09:58:37.426Z,82146.19
2023-03-26T10:01:56.815Z,82170.16
2023-03-26T10:05:42.652Z,82060.28
2023-03-26T10:08:51.415Z,82021.75
2023-03-26T10:12:10.270Z,82074.66
2023-03-26T10:15:41.329Z,82025.91
2023-03-26T10:18:56.591Z,82013.94
2023-03-26T10:22:20.812Z,82089.75
2023-03-26T10:25:32.606Z,82149.69
2023-03-26T10:28:41.325Z,82180.81
2023-03-26T10:32:09.840Z,82219.91
2023-03-26T10:35:38.584Z,82277.31
2023-03-26T10:39:37.393Z,82286.84
2023-03-26T10:43:14.752Z,82372.91
2023-03-26T10:46:34.411Z,82436.84
2023-03-26T10:49:50.356Z,82419.16
2023-03-26T10:53:20.787Z,82343.69
2023-03-26T10:56:38.391Z,82282.09
2023-03-26T10:59:41.233Z,82224.16
2023-03-26T11:03:32.069Z,82271.91
2023-03-26T11:06:45.755Z,82275.91
2023-03-26T11:09:54.970Z,82234.69
2023-03-26T11:13:22.574Z,82217.81
2023-03-26T11:16:50.680Z,82242.56
2023-03-26T11:20:41.252Z,82248.97
2023-03-26T11:23:46.481Z,82202.75
2023-03-26T11:27:15.385Z,82126.44
2023-03-26T11:30:34.418Z,82158.16
2023-03-26T11:33:45.590Z,82148.69
2023-03-26T11:36:54.441Z,82145.50
2023-03-26T11:39:59.362Z,82185.34
2023-03-26T11:43:09.402Z,82156.78
2023-03-26T11:46:14.759Z,82127.31
2023-03-26T11:49:20.346Z,82132.84
2023-03-26T11:52:23.352Z,82104.22
2023-03-26T11:55:27.679Z,82035.59
2023-03-26T11:58:38.427Z,81990.84
2023-03-26T12:01:56.012Z,81978.16
2023-03-26T12:05:19.070Z,81911.50
2023-03-26T12:08:30.388Z,81941.66
2023-03-26T12:11:35.859Z,82027.91
2023-03-26T12:14:43.228Z,82082.25
2023-03-26T12:17:48.289Z,82068.97
2023-03-26T12:21:03.570Z,82072.66
2023-03-26T12:24:08.527Z,82051.97
2023-03-26T12:27:30.951Z,82052.31
2023-03-26T12:30:38.063Z,82025.00
2023-03-26T12:33:40.747Z,82015.38
2023-03-26T12:36:55.792Z,82039.44
2023-03-26T12:40:28.944Z,82037.06
2023-03-26T12:44:55.429Z,82020.41
2023-03-26T12:47:57.244Z,81998.00
2023-03-26T12:50:43.388Z,81977.31
2023-03-26T12:54:03.196Z,81943.09
2023-03-26T12:57:18.397Z,81950.50
2023-03-26T13:00:31.680Z,81987.00
2023-03-26T13:03:41.835Z,82015.69
2023-03-26T13:06:59.998Z,81998.19
2023-03-26T13:10:33.827Z,82009.41
2023-03-26T13:13:56.471Z,82019.22
2023-03-26T13:17:16.818Z,82046.38
2023-03-26T13:20:35.131Z,81968.28
2023-03-26T13:24:08.003Z,81946.78
2023-03-26T13:27:30.387Z,81944.19
2023-03-26T13:30:55.575Z,81947.41
2023-03-26T13:34:11.035Z,81973.00
2023-03-26T13:37:23.002Z,81974.87
2023-03-26T13:40:44.826Z,81984.22
2023-03-26T13:44:00.067Z,81955.56
2023-03-26T13:47:13.331Z,81938.81
2023-03-26T13:50:23.880Z,81926.81
2023-03-26T13:53:34.985Z,81939.59
2023-03-26T13:56:50.941Z,81958.84
2023-03-26T14:00:12.804Z,81919.41
2023-03-26T14:03:53.077Z,81936.53
2023-03-26T14:07:18.066Z,81907.88
2023-03-26T14:10:26.593Z,81893.47
2023-03-26T14:13:47.721Z,81882.41
2023-03-26T14:16:58.513Z,81877.63
2023-03-26T14:20:22.613Z,81900.03
2023-03-26T14:23:38.991Z,81938.31
2023-03-26T14:27:11.770Z,81933.53
2023-03-26T14:30:33.476Z,81923.97
2023-03-26T14:33:50.618Z,81919.47
2023-03-26T14:37:30.098Z,81892.91
2023-03-26T14:41:02.137Z,81898.81
2023-03-26T14:44:07.421Z,81909.72
2023-03-26T14:47:21.592Z,81901.06
2023-03-26T14:50:36.008Z,81905.06
2023-03-26T14:53:44.166Z,81898.66
2023-03-26T14:57:09.827Z,81890.69
2023-03-26T15:00:34.657Z,81883.53
2023-03-26T15:04:02.253Z,81903.56
2023-03-26T15:07:41.370Z,81899.63
2023-03-26T15:11:22.036Z,81901.47
2023-03-26T15:14:36.694Z,81894.06
2023-03-26T15:18:15.933Z,81895.69
2023-03-26T15:21:39.801Z,81884.81
2023-03-26T15:24:48.583Z,81887.81
2023-03-26T15:27:52.019Z,81907.94
2023-03-26T15:31:43.349Z,81918.94
2023-03-26T15:35:02.625Z,81913.44
2023-03-26T15:38:13.924Z,81921.44
2023-03-26T15:41:25.767Z,81926.25
2023-03-26T15:44:55.309Z,81930.25
2023-03-26T15:48:12.943Z,81935.78
2023-03-26T15:51:32.104Z,81927.88
2023-03-26T15:54:59.450Z,81929.47
2023-03-26T15:58:10.182Z,81926.31
2023-03-26T16:01:21.427Z,81919.19
2023-03-26T16:04:57.591Z,81914.50
2023-03-26T16:08:08.666Z,81920.84
2023-03-26T16:11:12.783Z,81932.84
2023-03-26T16:14:23.292Z,81931.28
2023-03-26T16:17:26.992Z,81939.25
2023-03-26T16:20:35.112Z,81939.31
2023-03-26T16:23:47.657Z,81943.38
2023-03-26T16:27:08.038Z,81941.84
2023-03-26T16:30:30.428Z,81950.81
2023-03-26T16:33:39.468Z,81957.00
2023-03-26T16:36:44.191Z,81964.97
2023-03-26T16:39:47.378Z,81963.38
2023-03-26T16:43:21.810Z,81965.22
2023-03-26T16:46:24.133Z,81974.56
2023-03-26T16:49:32.604Z,81977.75
2023-03-26T16:52:47.752Z,81988.91
2023-03-26T16:56:13.820Z,82003.16
2023-03-26T16:59:37.363Z,82003.44
2023-03-26T17:03:13.029Z,82011.19
2023-03-26T17:06:46.443Z,82019.16
2023-03-26T17:10:16.948Z,82017.81
2023-03-26T17:13:54.734Z,82023.97
2023-03-26T17:17:22.170Z,82027.97
2023-03-26T17:20:40.883Z,82038.28
2023-03-26T17:24:04.140Z,82040.62
2023-03-26T17:27:23.812Z,82047.03
2023-03-26T17:30:40.477Z,82044.66
2023-03-26T17:33:43.435Z,82051.00
2023-03-26T17:36:56.449Z,82055.78
2023-03-26T17:40:02.049Z,82047.28
2023-03-26T17:43:11.188Z,82052.56
2023-03-26T17:46:43.553Z,82047.88
2023-03-26T17:49:51.166Z,82049.44
2023-03-26T17:53:03.156Z,82046.25
2023-03-26T17:56:14.786Z,82054.13
2023-03-26T17:59:26.729Z,82052.63
2023-03-26T18:02:42.839Z,82057.56
2023-03-26T18:05:47.055Z,82057.38
2023-03-26T18:09:05.666Z,82049.41
2023-03-26T18:12:15.016Z,82061.53
2023-03-26T18:15:44.947Z,82055.22
2023-03-26T18:18:59.175Z,82054.41
2023-03-26T18:22:07.355Z,82058.97
2023-03-26T18:25:22.272Z,82047.12
2023-03-26T18:28:34.970Z,82046.28
2023-03-26T18:31:42.439Z,82042.28
2023-03-26T18:34:53.514Z,82039.94
2023-03-26T18:38:03.438Z,82040.00
2023-03-26T18:41:08.357Z,82036.97
2023-03-26T18:44:18.005Z,82038.66
2023-03-26T18:47:21.190Z,82042.63
2023-03-26T18:50:31.051Z,82042.44
2023-03-26T18:53:41.287Z,82043.44
2023-03-26T18:56:47.533Z,82039.31
2023-03-26T18:59:52.712Z,82040.94
2023-03-26T19:03:06.009Z,82040.09
2023-03-26T19:06:10.437Z,82021.09
2023-03-26T19:09:30.392Z,82024.34
2023-03-26T19:12:35.742Z,82032.47
2023-03-26T19:15:38.549Z,82024.41
2023-03-26T19:18:44.208Z,82029.19
2023-03-26T19:21:49.502Z,82020.41
2023-03-26T19:24:58.222Z,82034.09
2023-03-26T19:28:01.733Z,82035.53
2023-03-26T19:31:08.884Z,82041.94
2023-03-26T19:34:21.595Z,82040.31
2023-03-26T19:37:26.974Z,82043.53
2023-03-26T19:40:34.309Z,82044.31
2023-03-26T19:43:36.913Z,82031.09
2023-03-26T19:46:53.539Z,82030.91
2023-03-26T19:49:59.062Z,82032.69
2023-03-26T19:53:18.923Z,82026.25
2023-03-26T19:56:22.959Z,82023.03
2023-03-26T19:59:26.448Z,82031.25
2023-03-26T20:02:28.998Z,82038.22
2023-03-26T20:05:34.648Z,82031.97
2023-03-26T20:08:37.139Z,82032.78
2023-03-26T20:11:40.853Z,82015.31
2023-03-26T20:14:45.354Z,82020.91
2023-03-26T20:17:52.395Z,82020.13
2023-03-26T20:20:55.200Z,82023.34
2023-03-26T20:24:01.812Z,82023.38
2023-03-26T20:27:04.752Z,82021.03
2023-03-26T20:30:09.218Z,82021.00
2023-03-26T20:33:27.062Z,82021.81
2023-03-26T20:36:34.173Z,82022.06
2023-03-26T20:39:37.852Z,82025.84
2023-03-26T20:42:42.619Z,82026.84
2023-03-26T20:45:46.030Z,82017.16
2023-03-26T20:48:48.828Z,82018.75
2023-03-26T20:51:51.251Z,82015.78
2023-03-26T20:54:55.147Z,82015.78
2023-03-26T20:57:57.564Z,82012.59
2023-03-26T21:01:01.743Z,82012.47
2023-03-26T21:04:04.602Z,82020.44
2023-03-26T21:07:17.539Z,82009.38
2023-03-26T21:10:21.854Z,82008.50
2023-03-26T21:13:39.094Z,82008.56
2023-03-26T21:16:42.144Z,82005.41
2023-03-26T21:19:46.021Z,82003.19
2023-03-26T21:23:16.722Z,82016.69
2023-03-26T21:26:41.660Z,82014.09
2023-03-26T21:29:44.588Z,82031.66
2023-03-26T21:32:48.005Z,82052.84
2023-03-26T21:35:51.906Z,82057.66
2023-03-26T21:38:55.794Z,82060.84
2023-03-26T21:42:05.304Z,82085.69
2023-03-26T21:45:09.486Z,82103.00
2023-03-26T21:48:12.730Z,82128.47
2023-03-26T21:51:18.981Z,82139.59
2023-03-26T21:54:21.478Z,82154.66
2023-03-26T21:57:42.502Z,82155.47
2023-03-26T22:01:03.772Z,82157.06
2023-03-26T22:04:10.993Z,82155.47
2023-03-26T22:07:19.267Z,82142.94
2023-03-26T22:10:22.551Z,82153.84
2023-03-26T22:13:25.289Z,82133.28
2023-03-26T22:16:28.046Z,82128.56
2023-03-26T22:19:30.627Z,82138.09
2023-03-26T22:22:33.361Z,82142.06
2023-03-26T22:25:36.158Z,82144.53
2023-03-26T22:28:38.923Z,82136.69
2023-03-26T22:31:42.071Z,82145.25
2023-03-26T22:34:45.123Z,82168.28
2023-03-26T22:37:47.485Z,82169.91
2023-03-26T22:40:59.179Z,82174.72
2023-03-26T22:44:12.908Z,82181.19
2023-03-26T22:47:22.567Z,82190.72
2023-03-26T22:50:26.091Z,82201.88
2023-03-26T22:53:29.596Z,82196.28
2023-03-26T22:56:32.170Z,82198.59
2023-03-26T22:59:35.052Z,82189.25
2023-03-26T23:02:37.459Z,82178.00
2023-03-26T23:05:40.965Z,82167.69
2023-03-26T23:08:43.359Z,82170.09
2023-03-26T23:11:46.082Z,82176.53
2023-03-26T23:14:52.408Z,82176.47
2023-03-26T23:17:55.406Z,82189.31
2023-03-26T23:20:58.773Z,82183.63
2023-03-26T23:24:01.645Z,82194.72
2023-03-26T23:27:04.889Z,82202.91
2023-03-26T23:30:10.896Z,82200.50
2023-03-26T23:33:13.604Z,82189.31
2023-03-26T23:36:18.926Z,82206.84
2023-03-26T23:39:21.733Z,82205.13
2023-03-26T23:42:28.602Z,82209.94
2023-03-26T23:45:32.604Z,82216.31
2023-03-26T23:48:35.434Z,82236.97
2023-03-26T23:51:37.961Z,82238.72
2023-03-26T23:54:42.494Z,82236.97
2023-03-26T23:57:45.253Z,82227.63
